Time;durP1;ratioP1;P1;durP2;ratioP2;P2;SDS_P1;SDS_P2;PMS_P1;PMS_P2;Temp;Humidity;BMP_temperature;BMP_pressure;BME280_temperature;BME280_humidity;BME280_pressure;Samples;Min_cycle;Max_cycle;Signal;HPM_P1;HPM_P2
2024/01/15 00:00:40;;;;;;;49.30;17.70;;;;;;;2.54;100.00;99392.78;8376149;28;20049;-56
2024/01/15 00:04:41;;;;;;;50.33;17.25;;;;;;;2.58;100.00;99388.91;8373811;28;20048;-56
2024/01/15 00:08:41;;;;;;;55.10;17.95;;;;;;;2.55;100.00;99396.28;8377516;28;20132;-56
2024/01/15 00:12:43;;;;;;;50.80;17.42;;;;;;;2.60;100.00;99392.31;8375795;28;20032;-57
2024/01/15 00:16:44;;;;;;;51.65;17.23;;;;;;;2.57;100.00;99379.22;8374812;28;20033;-56
2024/01/15 00:20:44;;;;;;;53.78;18.15;;;;;;;2.48;100.00;99377.25;8373450;28;20127;-56
2024/01/15 00:24:45;;;;;;;52.85;18.42;;;;;;;2.49;100.00;99373.59;8374672;28;20097;-57
2024/01/15 00:28:45;;;;;;;49.45;17.73;;;;;;;2.41;100.00;99364.50;8375722;28;20040;-57
2024/01/15 00:32:45;;;;;;;55.90;18.33;;;;;;;2.45;100.00;99357.97;8376526;28;20048;-56
2024/01/15 00:36:46;;;;;;;51.22;16.95;;;;;;;2.48;100.00;99349.72;8374533;28;20501;-57
2024/01/15 00:40:46;;;;;;;56.38;18.67;;;;;;;2.53;100.00;99359.06;8375708;28;20112;-55
2024/01/15 00:44:47;;;;;;;60.58;18.55;;;;;;;2.55;100.00;99354.47;8375708;28;20069;-55
2024/01/15 00:48:47;;;;;;;51.55;16.60;;;;;;;2.61;100.00;99347.78;8372033;28;20489;-54
2024/01/15 00:52:48;;;;;;;53.15;18.52;;;;;;;2.70;100.00;99347.94;8372325;28;20123;-54
2024/01/15 00:56:48;;;;;;;53.22;18.48;;;;;;;2.77;100.00;99350.97;8377531;28;20500;-54
2024/01/15 01:00:51;;;;;;;55.95;17.77;;;;;;;2.72;100.00;99348.69;8373456;28;20484;-55
2024/01/15 01:04:52;;;;;;;54.97;17.20;;;;;;;2.68;100.00;99349.88;8376071;28;20046;-55
2024/01/15 01:08:52;;;;;;;48.70;18.88;;;;;;;2.64;100.00;99360.88;8373183;28;20040;-58
2024/01/15 01:12:52;;;;;;;58.38;17.70;;;;;;;2.61;100.00;99345.13;8372968;28;20041;-57
2024/01/15 01:16:53;;;;;;;62.80;19.30;;;;;;;2.63;100.00;99359.19;8373359;28;20045;-57
2024/01/15 01:20:53;;;;;;;49.78;18.13;;;;;;;2.62;100.00;99358.34;8372390;28;20064;-57
2024/01/15 01:24:54;;;;;;;54.28;19.17;;;;;;;2.65;100.00;99352.78;8374311;28;20416;-56
2024/01/15 01:28:54;;;;;;;54.53;18.40;;;;;;;2.71;100.00;99354.97;8375703;28;20316;-58
2024/01/15 01:32:55;;;;;;;60.05;19.98;;;;;;;2.75;100.00;99359.09;8371968;28;20068;-57
2024/01/15 01:36:56;;;;;;;54.85;20.67;;;;;;;2.74;100.00;99349.38;8374202;28;20047;-57
2024/01/15 01:40:57;;;;;;;58.22;19.13;;;;;;;2.70;100.00;99349.75;8370087;28;20040;-58
2024/01/15 01:44:57;;;;;;;53.20;18.13;;;;;;;2.63;100.00;99345.88;8372114;28;20089;-58
2024/01/15 01:49:01;;;;;;;56.92;19.15;;;;;;;2.65;100.00;99355.44;8372019;28;20553;-58
2024/01/15 01:53:04;;;;;;;57.70;18.83;;;;;;;2.64;100.00;99355.56;8375531;28;20299;-58
2024/01/15 01:57:05;;;;;;;51.83;18.75;;;;;;;2.59;100.00;99342.56;8371092;28;20382;-55
2024/01/15 02:01:07;;;;;;;59.00;19.67;;;;;;;2.61;100.00;99354.00;8373664;28;20032;-56
2024/01/15 02:05:08;;;;;;;51.40;19.02;;;;;;;2.65;100.00;99350.09;8367994;28;20045;-57
2024/01/15 02:09:09;;;;;;;66.20;21.73;;;;;;;2.65;100.00;99357.28;8371931;28;20069;-58
2024/01/15 02:13:10;;;;;;;61.13;20.67;;;;;;;2.70;100.00;99358.59;8374272;28;20040;-56
2024/01/15 02:17:11;;;;;;;60.85;19.35;;;;;;;2.74;100.00;99361.91;8374287;28;20047;-55
2024/01/15 02:21:12;;;;;;;57.33;19.33;;;;;;;2.70;100.00;99353.28;8371400;28;20032;-55
2024/01/15 02:25:12;;;;;;;64.10;21.17;;;;;;;2.69;100.00;99354.25;8374642;28;20417;-55
2024/01/15 02:29:13;;;;;;;57.72;20.98;;;;;;;2.75;100.00;99351.09;8372518;28;20090;-56
2024/01/15 02:33:14;;;;;;;55.00;19.35;;;;;;;2.73;100.00;99328.16;8358992;28;20041;-56
2024/01/15 02:37:14;;;;;;;57.53;21.67;;;;;;;2.66;100.00;99338.47;8341774;28;20047;-55
2024/01/15 02:41:15;;;;;;;58.53;20.02;;;;;;;2.65;100.00;99336.75;8345550;28;20040;-56
2024/01/15 02:45:15;;;;;;;51.13;19.25;;;;;;;2.67;100.00;99342.84;8348408;28;20079;-55
2024/01/15 02:49:16;;;;;;;58.70;20.50;;;;;;;2.67;100.00;99341.97;8344456;28;20037;-55
2024/01/15 02:53:16;;;;;;;52.75;20.98;;;;;;;2.66;100.00;99340.28;8345054;28;20048;-56
2024/01/15 02:57:17;;;;;;;65.00;22.30;;;;;;;2.65;100.00;99339.44;8346768;28;20284;-55
2024/01/15 03:01:19;;;;;;;54.15;19.42;;;;;;;2.64;100.00;99340.41;8342576;28;20130;-56
2024/01/15 03:05:20;;;;;;;53.20;21.15;;;;;;;2.66;100.00;99349.16;8344186;28;20043;-55
2024/01/15 03:09:20;;;;;;;54.55;19.10;;;;;;;2.69;100.00;99343.56;8345677;28;20501;-55
2024/01/15 03:13:21;;;;;;;56.55;21.95;;;;;;;2.64;100.00;99340.41;8344587;28;20072;-55
2024/01/15 03:17:22;;;;;;;59.08;20.98;;;;;;;2.64;100.00;99345.75;8344290;28;20076;-55
2024/01/15 03:21:23;;;;;;;53.60;21.73;;;;;;;2.69;100.00;99330.25;8343340;28;20040;-55
2024/01/15 03:25:23;;;;;;;59.03;22.05;;;;;;;2.75;100.00;99327.09;8346057;28;20049;-55
2024/01/15 03:29:24;;;;;;;55.42;22.23;;;;;;;2.82;100.00;99328.28;8345072;28;20029;-56
2024/01/15 03:33:24;;;;;;;61.88;19.90;;;;;;;2.83;100.00;99324.66;8344376;28;20485;-55
2024/01/15 03:37:25;;;;;;;62.33;22.55;;;;;;;2.84;100.00;99331.66;8343873;28;20041;-56
2024/01/15 03:41:25;;;;;;;68.47;22.08;;;;;;;2.79;100.00;99331.22;8344965;28;20033;-56
2024/01/15 03:45:25;;;;;;;64.50;22.63;;;;;;;2.82;100.00;99330.97;8343806;28;20037;-56
2024/01/15 03:49:26;;;;;;;56.63;22.95;;;;;;;2.84;100.00;99315.66;8345153;28;20079;-58
2024/01/15 03:53:26;;;;;;;62.65;22.20;;;;;;;2.86;100.00;99323.53;8343954;28;20052;-59
2024/01/15 03:57:27;;;;;;;53.90;19.40;;;;;;;2.83;100.00;99321.97;8344589;28;20044;-56
2024/01/15 04:01:30;;;;;;;59.80;21.38;;;;;;;2.88;100.00;99317.13;8345349;28;20033;-56
2024/01/15 04:05:30;;;;;;;52.45;19.58;;;;;;;2.92;100.00;99312.38;8343177;28;20048;-56
2024/01/15 04:09:31;;;;;;;54.50;19.48;;;;;;;2.89;100.00;99313.50;8344622;28;20072;-56
2024/01/15 04:13:33;;;;;;;47.88;18.85;;;;;;;2.90;100.00;99303.66;8345149;28;20034;-55
2024/01/15 04:17:34;;;;;;;49.58;18.75;;;;;;;2.89;100.00;99307.28;8345003;28;20041;-55
2024/01/15 04:21:34;;;;;;;40.70;17.65;;;;;;;2.88;100.00;99303.78;8361887;28;20047;-56
2024/01/15 04:25:35;;;;;;;45.85;18.52;;;;;;;2.98;100.00;99299.41;8344790;28;20119;-55
2024/01/15 04:29:39;;;;;;;36.25;16.73;;;;;;;3.03;100.00;99293.69;8343524;28;20060;-55
2024/01/15 04:33:39;;;;;;;41.33;16.63;;;;;;;3.03;100.00;99283.88;8341809;28;20053;-56
2024/01/15 04:37:40;;;;;;;39.63;17.30;;;;;;;3.04;100.00;99280.22;8342909;28;20064;-56
2024/01/15 04:41:40;;;;;;;41.97;17.83;;;;;;;3.05;100.00;99281.09;8335345;28;20116;-56
2024/01/15 04:45:41;;;;;;;43.30;18.08;;;;;;;3.05;100.00;99287.25;8342721;28;20604;-56
2024/01/15 04:49:41;;;;;;;46.60;18.77;;;;;;;3.06;100.00;99280.09;8339258;28;20497;-56
2024/01/15 04:53:41;;;;;;;42.28;17.23;;;;;;;3.05;100.00;99281.91;8339592;28;20136;-55
2024/01/15 04:57:43;;;;;;;40.35;16.70;;;;;;;3.08;100.00;99273.66;8346023;28;20048;-56
2024/01/15 05:01:44;;;;;;;42.47;17.63;;;;;;;3.10;100.00;99274.41;8345573;28;20060;-55
2024/01/15 05:05:44;;;;;;;40.60;15.70;;;;;;;3.09;100.00;99262.03;8343258;28;20390;-56
2024/01/15 05:09:45;;;;;;;43.35;16.48;;;;;;;3.11;100.00;99262.72;8348090;28;20033;-55
2024/01/15 05:13:45;;;;;;;29.20;14.10;;;;;;;3.11;100.00;99264.59;8337423;28;20041;-56
2024/01/15 05:17:45;;;;;;;35.05;14.95;;;;;;;3.07;100.00;99258.63;8340154;28;20413;-55
2024/01/15 05:21:46;;;;;;;37.75;14.63;;;;;;;3.01;100.00;99263.59;8338867;28;20091;-55
2024/01/15 05:25:46;;;;;;;39.35;16.45;;;;;;;2.99;100.00;99261.06;8341710;28;20033;-55
2024/01/15 05:29:47;;;;;;;27.92;12.65;;;;;;;2.91;100.00;99263.50;8339907;28;20067;-55
2024/01/15 05:33:47;;;;;;;30.58;13.32;;;;;;;2.88;100.00;99253.09;8341497;28;20053;-55
2024/01/15 05:37:48;;;;;;;33.33;14.75;;;;;;;3.00;100.00;99259.25;8345763;28;20094;-54
2024/01/15 05:41:48;;;;;;;33.28;15.32;;;;;;;3.04;100.00;99261.53;8348922;28;20040;-55
2024/01/15 05:45:49;;;;;;;33.88;15.68;;;;;;;3.03;100.00;99254.53;8347616;28;20037;-55
2024/01/15 05:49:49;;;;;;;40.28;16.10;;;;;;;3.06;100.00;99256.94;8338488;28;20041;-58
2024/01/15 05:53:49;;;;;;;42.72;18.83;;;;;;;3.04;100.00;99258.88;8366001;28;20497;-58
2024/01/15 05:57:50;;;;;;;40.80;17.23;;;;;;;3.14;100.00;99253.66;8400754;28;20067;-57
2024/01/15 06:01:50;;;;;;;38.50;17.67;;;;;;;3.22;100.00;99261.88;8398514;28;20534;-59
2024/01/15 06:05:51;;;;;;;36.03;17.23;;;;;;;3.24;100.00;99249.25;8382005;28;20435;-59
2024/01/15 06:09:51;;;;;;;42.28;17.45;;;;;;;3.19;100.00;99256.78;8370065;28;20514;-56
2024/01/15 06:13:51;;;;;;;43.17;17.70;;;;;;;3.15;100.00;99248.19;8371610;28;20110;-55
2024/01/15 06:17:52;;;;;;;40.50;16.40;;;;;;;3.18;100.00;99249.75;8366652;28;20398;-55
2024/01/15 06:21:52;;;;;;;40.03;16.40;;;;;;;3.16;100.00;99252.53;8364869;28;20404;-56
2024/01/15 06:25:53;;;;;;;35.25;16.35;;;;;;;3.09;100.00;99243.34;8381765;28;20074;-57
2024/01/15 06:29:53;;;;;;;41.40;17.13;;;;;;;3.11;100.00;99244.06;8389289;28;20037;-58
2024/01/15 06:33:54;;;;;;;44.47;16.23;;;;;;;3.15;100.00;99240.19;8390197;28;20055;-56
2024/01/15 06:37:54;;;;;;;41.65;16.48;;;;;;;3.12;100.00;99229.75;8391893;28;20028;-56
2024/01/15 06:41:55;;;;;;;36.97;15.93;;;;;;;3.15;100.00;99234.84;8391431;28;20045;-57
2024/01/15 06:45:59;;;;;;;38.50;15.85;;;;;;;3.16;100.00;99231.19;8382268;28;20052;-58
2024/01/15 06:50:02;;;;;;;36.78;17.50;;;;;;;3.14;100.00;99233.13;8365578;28;20631;-59
2024/01/15 06:54:06;;;;;;;33.42;13.35;;;;;;;3.15;100.00;99232.16;8368846;28;20036;-57
2024/01/15 06:58:07;;;;;;;32.70;14.02;;;;;;;3.15;100.00;99225.97;8376299;28;20036;-54
2024/01/15 07:02:08;;;;;;;38.05;14.93;;;;;;;3.13;100.00;99228.75;8374314;28;20498;-54
2024/01/15 07:06:11;;;;;;;37.30;16.67;;;;;;;3.13;100.00;99226.09;8398723;28;20106;-55
2024/01/15 07:10:12;;;;;;;40.47;17.70;;;;;;;3.13;100.00;99219.91;8374431;28;20083;-55
2024/01/15 07:14:13;;;;;;;39.75;17.17;;;;;;;3.14;100.00;99217.09;8373539;28;20090;-55
2024/01/15 07:18:13;;;;;;;42.95;18.45;;;;;;;3.20;100.00;99221.94;8371887;28;20037;-55
2024/01/15 07:22:15;;;;;;;51.80;19.45;;;;;;;3.20;100.00;99213.94;8373672;28;20033;-55
2024/01/15 07:26:15;;;;;;;49.97;19.92;;;;;;;3.25;100.00;99219.75;8377029;28;20064;-54
2024/01/15 07:30:15;;;;;;;40.85;18.17;;;;;;;3.33;100.00;99219.94;8379595;28;20033;-55
2024/01/15 07:34:17;;;;;;;40.13;17.30;;;;;;;3.34;100.00;99221.66;8378824;28;20033;-55
2024/01/15 07:38:17;;;;;;;42.15;17.77;;;;;;;3.40;100.00;99226.50;8381701;28;20032;-54
2024/01/15 07:42:18;;;;;;;49.97;22.10;;;;;;;3.41;100.00;99220.16;8381054;28;20039;-64
2024/01/15 07:46:18;;;;;;;50.15;20.40;;;;;;;3.43;100.00;99212.03;8378723;28;20405;-59
2024/01/15 07:50:19;;;;;;;47.47;18.77;;;;;;;3.45;100.00;99216.25;8378803;28;20514;-62
2024/01/15 07:54:20;;;;;;;39.72;17.00;;;;;;;3.52;100.00;99222.81;8380837;28;20412;-60
2024/01/15 07:58:20;;;;;;;41.65;18.13;;;;;;;3.53;100.00;99221.81;8382576;28;20119;-58
2024/01/15 08:02:21;;;;;;;47.72;19.95;;;;;;;3.56;100.00;99213.53;8374591;28;20123;-58
2024/01/15 08:06:23;;;;;;;47.08;21.02;;;;;;;3.59;100.00;99218.63;8373312;28;20043;-58
2024/01/15 08:10:23;;;;;;;42.97;20.25;;;;;;;3.59;100.00;99223.13;8377875;28;20040;-57
2024/01/15 08:14:24;;;;;;;37.15;18.35;;;;;;;3.59;100.00;99213.28;8375841;28;20040;-58
2024/01/15 08:18:25;;;;;;;39.30;17.95;;;;;;;3.59;100.00;99213.28;8379289;28;20051;-58
2024/01/15 08:22:25;;;;;;;43.08;16.55;;;;;;;3.67;99.81;99208.16;8410080;28;20136;-58
2024/01/15 08:26:26;;;;;;;41.67;15.23;;;;;;;3.68;100.00;99215.19;8380736;28;20037;-58
2024/01/15 08:30:27;;;;;;;33.78;14.70;;;;;;;3.68;100.00;99220.53;8382694;28;20048;-58
2024/01/15 08:34:28;;;;;;;28.10;13.63;;;;;;;3.67;100.00;99221.53;8377140;28;20039;-55
2024/01/15 08:38:28;;;;;;;32.72;15.57;;;;;;;3.70;100.00;99210.56;8380124;28;20076;-54
2024/01/15 08:42:28;;;;;;;31.70;15.93;;;;;;;3.73;99.88;99212.13;8382842;28;20625;-56
2024/01/15 08:46:29;;;;;;;28.65;12.77;;;;;;;3.75;99.71;99213.69;8377715;28;20052;-57
2024/01/15 08:50:31;;;;;;;25.20;11.32;;;;;;;3.73;99.50;99215.63;8357847;28;20075;-56
2024/01/15 08:54:33;;;;;;;29.05;12.27;;;;;;;3.74;99.85;99212.00;8343561;28;20100;-55
2024/01/15 08:58:33;;;;;;;23.92;10.65;;;;;;;3.80;99.01;99216.81;8344166;28;20409;-55
2024/01/15 09:02:35;;;;;;;23.05;11.57;;;;;;;3.77;99.10;99211.75;8344317;28;20033;-58
2024/01/15 09:06:35;;;;;;;20.88;9.85;;;;;;;3.79;98.16;99214.28;8373557;28;20515;-58
2024/01/15 09:10:36;;;;;;;19.00;9.98;;;;;;;3.76;98.71;99218.03;8337772;28;20033;-60
2024/01/15 09:14:37;;;;;;;24.42;10.52;;;;;;;3.64;100.00;99237.81;8341266;28;20048;-60
2024/01/15 09:18:37;;;;;;;24.17;9.23;;;;;;;3.50;100.00;99224.75;8342415;28;20497;-56
2024/01/15 09:22:40;;;;;;;14.45;8.35;;;;;;;3.33;100.00;99241.31;8339810;28;20049;-58
2024/01/15 09:26:40;;;;;;;17.23;9.60;;;;;;;3.07;100.00;99242.63;8340482;28;20041;-57
2024/01/15 09:30:41;;;;;;;17.52;8.50;;;;;;;2.96;100.00;99245.28;8339960;28;20070;-58
2024/01/15 09:34:41;;;;;;;14.02;7.70;;;;;;;2.87;100.00;99240.69;8338953;28;20041;-57
2024/01/15 09:38:42;;;;;;;18.67;9.27;;;;;;;2.88;100.00;99245.09;8341487;28;20073;-57
2024/01/15 09:42:43;;;;;;;17.83;9.05;;;;;;;2.94;100.00;99257.94;8340459;28;20057;-56
2024/01/15 09:46:44;;;;;;;17.38;8.48;;;;;;;2.96;100.00;99255.97;8342302;28;20328;-59
2024/01/15 09:50:45;;;;;;;22.02;9.82;;;;;;;3.02;100.00;99266.16;8343243;28;20037;-58
2024/01/15 09:54:46;;;;;;;21.17;8.77;;;;;;;3.04;100.00;99258.88;8341436;28;20051;-58
2024/01/15 09:58:46;;;;;;;28.67;10.23;;;;;;;3.03;100.00;99267.00;8341242;28;20055;-57
2024/01/15 10:02:47;;;;;;;19.75;10.88;;;;;;;2.98;100.00;99270.03;8339170;28;20087;-56
2024/01/15 10:06:51;;;;;;;22.00;10.65;;;;;;;2.93;100.00;99277.56;8341417;28;20045;-58
2024/01/15 10:10:51;;;;;;;19.92;10.70;;;;;;;2.91;100.00;99268.84;8339758;28;20041;-55
2024/01/15 10:14:52;;;;;;;24.85;11.18;;;;;;;2.93;100.00;99272.22;8339319;28;20041;-55
2024/01/15 10:18:52;;;;;;;18.27;11.02;;;;;;;2.94;100.00;99273.09;8338134;28;20075;-55
2024/01/15 10:22:53;;;;;;;16.02;9.07;;;;;;;2.99;100.00;99277.06;8341131;28;20038;-56
2024/01/15 10:27:05;;;;;;;17.42;9.40;;;;;;;2.99;100.00;99285.09;8340454;28;20044;-55
2024/01/15 10:31:06;;;;;;;17.58;8.80;;;;;;;2.89;100.00;99275.25;8340189;28;20037;-56
2024/01/15 10:35:08;;;;;;;19.52;10.65;;;;;;;2.85;100.00;99285.34;8340787;28;20036;-57
2024/01/15 10:39:08;;;;;;;17.33;9.77;;;;;;;2.79;100.00;99272.50;8327265;28;20092;-58
2024/01/15 10:43:10;;;;;;;15.18;8.77;;;;;;;2.81;100.00;99281.22;8341124;28;20556;-56
2024/01/15 10:47:11;;;;;;;15.27;9.40;;;;;;;2.84;100.00;99283.63;8339780;28;20057;-55
2024/01/15 10:51:15;;;;;;;21.88;10.05;;;;;;;2.84;100.00;99283.63;8336171;28;20068;-55
2024/01/15 10:55:17;;;;;;;16.20;8.97;;;;;;;2.83;100.00;99286.44;8338389;28;20072;-55
2024/01/15 10:59:20;;;;;;;17.95;9.85;;;;;;;2.81;100.00;99277.72;8340027;28;20038;-55
2024/01/15 11:03:21;;;;;;;18.33;9.77;;;;;;;2.82;100.00;99269.59;8347061;28;20057;-55
2024/01/15 11:07:23;;;;;;;16.45;9.38;;;;;;;2.80;100.00;99274.19;8346048;28;20041;-55
2024/01/15 11:11:25;;;;;;;13.77;8.40;;;;;;;2.83;100.00;99270.41;8344638;28;20037;-54
2024/01/15 11:15:29;;;;;;;18.48;9.77;;;;;;;2.82;100.00;99269.59;8343815;28;20087;-56
2024/01/15 11:19:42;;;;;;;20.17;10.00;;;;;;;2.81;100.00;99278.53;8344031;28;20551;-55
2024/01/15 11:23:47;;;;;;;21.00;10.03;;;;;;;2.85;100.00;99269.34;8347153;28;20063;-55
2024/01/15 11:27:51;;;;;;;27.13;10.82;;;;;;;2.91;100.00;99268.00;8343835;28;20045;-54
2024/01/15 11:32:00;;;;;;;23.85;11.45;;;;;;;3.01;100.00;99272.47;8344747;28;20046;-55
2024/01/15 11:36:01;;;;;;;21.92;11.43;;;;;;;3.05;100.00;99276.56;8344436;28;20095;-55
2024/01/15 11:40:03;;;;;;;23.60;11.15;;;;;;;3.14;100.00;99270.50;8344948;28;20492;-56
2024/01/15 11:44:05;;;;;;;21.70;10.43;;;;;;;3.14;100.00;99273.16;8346145;28;20037;-56
2024/01/15 11:48:23;;;;;;;21.77;10.63;;;;;;;3.15;100.00;99285.56;8343064;28;20083;-56
2024/01/15 11:52:25;;;;;;;26.00;10.60;;;;;;;3.18;100.00;99288.00;8344223;28;20041;-58
2024/01/15 11:56:26;;;;;;;26.83;9.80;;;;;;;3.30;100.00;99286.97;8346192;28;20128;-58
2024/01/15 12:00:27;;;;;;;24.80;9.63;;;;;;;3.42;100.00;99274.44;8341967;28;20044;-58
2024/01/15 12:04:27;;;;;;;20.98;9.30;;;;;;;3.53;100.00;99285.94;8342511;28;20045;-57
2024/01/15 12:08:29;;;;;;;16.85;8.15;;;;;;;3.66;100.00;99283.94;8343562;28;20120;-56
2024/01/15 12:12:44;;;;;;;25.95;8.23;;;;;;;3.86;100.00;99275.13;8342056;28;20041;-57
2024/01/15 12:16:44;;;;;;;21.33;8.57;;;;;;;5.32;96.60;99264.81;8342831;28;20046;-55
2024/01/15 12:20:46;;;;;;;18.48;6.00;;;;;;;6.09;88.56;99265.72;8344931;28;20037;-58
2024/01/15 12:24:47;;;;;;;14.60;6.10;;;;;;;5.59;88.23;99269.50;8342222;28;20041;-58
2024/01/15 12:28:51;;;;;;;13.45;5.47;;;;;;;4.72;90.84;99264.91;8341916;28;20137;-58
2024/01/15 12:32:52;;;;;;;19.63;5.32;;;;;;;4.35;94.55;99285.16;8342801;28;20457;-57
2024/01/15 12:36:53;;;;;;;15.65;6.68;;;;;;;4.19;95.94;99278.56;8344837;28;20724;-56
2024/01/15 12:40:54;;;;;;;14.15;4.97;;;;;;;4.11;96.86;99273.03;8341788;28;20504;-58
2024/01/15 12:44:56;;;;;;;16.98;6.40;;;;;;;3.99;97.34;99277.56;8337473;28;20048;-58
2024/01/15 12:48:57;;;;;;;10.05;5.10;;;;;;;4.20;97.62;99282.94;8343509;28;20045;-60
2024/01/15 12:52:59;;;;;;;8.27;5.43;;;;;;;4.24;95.80;99289.72;8360195;28;20098;-57
2024/01/15 12:57:00;;;;;;;15.95;4.97;;;;;;;4.23;95.43;99304.06;8356617;28;20041;-57
2024/01/15 13:01:00;;;;;;;18.83;5.13;;;;;;;4.32;95.82;99297.91;8385212;28;20066;-57
2024/01/15 13:05:01;;;;;;;20.17;7.82;;;;;;;4.05;98.01;99307.34;8360822;28;20051;-55
2024/01/15 13:09:01;;;;;;;13.07;6.07;;;;;;;3.83;100.00;99312.78;8344114;28;20053;-57
2024/01/15 13:13:02;;;;;;;6.95;4.43;;;;;;;3.90;100.00;99303.28;8344665;28;20036;-58
2024/01/15 13:17:03;;;;;;;11.10;5.15;;;;;;;4.03;100.00;99298.56;8344884;28;20589;-56
2024/01/15 13:21:04;;;;;;;11.95;4.88;;;;;;;4.08;100.00;99296.38;8337379;28;20044;-59
2024/01/15 13:25:07;;;;;;;10.52;5.53;;;;;;;4.05;100.00;99306.47;8339626;28;20069;-56
2024/01/15 13:29:07;;;;;;;11.50;4.95;;;;;;;3.97;100.00;99304.44;8344103;28;20090;-57
2024/01/15 13:33:08;;;;;;;15.93;4.80;;;;;;;3.86;100.00;99304.50;8344942;28;20116;-56
2024/01/15 13:37:09;;;;;;;9.15;4.85;;;;;;;3.82;100.00;99310.25;8345777;28;20061;-57
2024/01/15 13:41:10;;;;;;;9.13;4.22;;;;;;;3.69;100.00;99306.91;8341327;28;20037;-54
2024/01/15 13:45:13;;;;;;;10.07;4.18;;;;;;;3.65;100.00;99303.63;8342457;28;20119;-57
2024/01/15 13:49:14;;;;;;;8.50;3.63;;;;;;;3.65;100.00;99310.78;8336360;28;20404;-58
2024/01/15 13:53:14;;;;;;;4.53;3.13;;;;;;;3.62;100.00;99311.88;8344487;28;20044;-61
2024/01/15 13:57:16;;;;;;;12.10;3.10;;;;;;;3.61;100.00;99322.69;8367044;28;20060;-62
2024/01/15 14:01:17;;;;;;;7.28;3.47;;;;;;;3.60;100.00;99329.03;8366231;28;20059;-56
2024/01/15 14:05:18;;;;;;;7.80;3.40;;;;;;;3.64;100.00;99331.31;8359552;28;20033;-57
2024/01/15 14:09:18;;;;;;;8.93;2.80;;;;;;;3.57;100.00;99322.09;8358427;28;20033;-58
2024/01/15 14:13:18;;;;;;;4.03;2.50;;;;;;;3.49;100.00;99324.56;8330237;28;20048;-57
2024/01/15 14:17:19;;;;;;;7.22;2.78;;;;;;;3.46;100.00;99346.19;8335604;28;20218;-58
2024/01/15 14:21:19;;;;;;;5.38;1.90;;;;;;;3.40;100.00;99346.69;8333424;28;20299;-59
2024/01/15 14:25:21;;;;;;;4.50;2.50;;;;;;;3.39;100.00;99349.47;8333475;28;20219;-61
2024/01/15 14:29:25;;;;;;;4.50;2.75;;;;;;;3.35;100.00;99356.03;8335121;28;20042;-57
2024/01/15 14:33:26;;;;;;;6.07;3.05;;;;;;;3.20;100.00;99366.13;8333060;28;20056;-59
2024/01/15 14:37:26;;;;;;;5.95;3.17;;;;;;;3.17;100.00;99371.72;8347249;28;20229;-57
2024/01/15 14:41:27;;;;;;;4.28;3.00;;;;;;;3.16;100.00;99374.50;8339476;28;20060;-56
2024/01/15 14:45:27;;;;;;;5.13;3.65;;;;;;;3.18;100.00;99378.75;8355427;28;20071;-57
2024/01/15 14:49:28;;;;;;;4.80;2.90;;;;;;;3.30;100.00;99393.78;8355626;28;20455;-58
2024/01/15 14:53:28;;;;;;;3.78;2.60;;;;;;;3.31;100.00;99389.28;8356777;28;20053;-57
2024/01/15 14:57:31;;;;;;;8.40;2.83;;;;;;;3.29;100.00;99397.44;8353276;28;20350;-57
2024/01/15 15:01:32;;;;;;;6.53;3.70;;;;;;;3.30;100.00;99408.97;8343094;28;20500;-57
2024/01/15 15:05:32;;;;;;;3.65;2.70;;;;;;;3.18;100.00;99415.28;8352401;28;20416;-58
2024/01/15 15:09:33;;;;;;;4.22;3.10;;;;;;;3.05;100.00;99431.41;8298972;28;20048;-55
2024/01/15 15:13:34;;;;;;;3.92;3.30;;;;;;;2.95;100.00;99429.56;8342261;28;20504;-57
2024/01/15 15:17:35;;;;;;;5.35;3.72;;;;;;;2.93;100.00;99431.53;8325841;28;20125;-56
2024/01/15 15:21:35;;;;;;;3.90;2.65;;;;;;;2.96;100.00;99445.47;8322728;28;20045;-55
2024/01/15 15:25:35;;;;;;;5.38;3.13;;;;;;;2.94;100.00;99450.09;8328240;28;20037;-55
2024/01/15 15:29:37;;;;;;;3.83;2.65;;;;;;;2.95;100.00;99459.78;8324574;28;20134;-57
2024/01/15 15:33:38;;;;;;;4.10;2.63;;;;;;;3.02;100.00;99473.53;8318889;28;20493;-57
2024/01/15 15:37:38;;;;;;;6.25;3.88;;;;;;;3.02;100.00;99466.34;8331836;28;20044;-57
2024/01/15 15:41:38;;;;;;;4.63;3.72;;;;;;;3.10;100.00;99466.63;8302984;28;20044;-60
2024/01/15 15:45:39;;;;;;;4.00;2.72;;;;;;;3.09;100.00;99488.09;8314476;28;20044;-55
2024/01/15 15:49:41;;;;;;;3.67;3.22;;;;;;;3.07;100.00;99498.88;8319400;28;20582;-55
2024/01/15 15:53:41;;;;;;;9.80;3.30;;;;;;;3.09;100.00;99507.63;8353804;28;20044;-55
2024/01/15 15:57:42;;;;;;;7.13;3.50;;;;;;;3.08;100.00;99500.56;8352335;28;20513;-57
2024/01/15 16:01:42;;;;;;;7.53;3.83;;;;;;;3.08;100.00;99510.44;8346364;28;20412;-56
2024/01/15 16:05:43;;;;;;;5.97;3.55;;;;;;;3.05;100.00;99510.66;8345704;28;20535;-56
2024/01/15 16:09:43;;;;;;;10.07;3.55;;;;;;;3.06;100.00;99520.38;8361164;28;20532;-56
2024/01/15 16:13:44;;;;;;;5.43;3.67;;;;;;;3.01;100.00;99515.38;8290281;28;20071;-57
2024/01/15 16:17:44;;;;;;;15.52;4.15;;;;;;;3.04;100.00;99525.81;8305818;28;20496;-57
2024/01/15 16:21:45;;;;;;;12.55;4.43;;;;;;;3.10;100.00;99536.03;8354395;28;20115;-58
2024/01/15 16:25:45;;;;;;;11.52;4.47;;;;;;;3.18;100.00;99533.63;8288181;28;20367;-56
2024/01/15 16:29:48;;;;;;;10.27;4.97;;;;;;;3.19;100.00;99546.00;8320422;28;20099;-56
2024/01/15 16:33:48;;;;;;;16.88;5.82;;;;;;;3.16;100.00;99551.56;8324846;28;20124;-57
2024/01/15 16:37:49;;;;;;;13.20;5.13;;;;;;;3.11;100.00;99564.41;8338209;28;20059;-57
2024/01/15 16:41:49;;;;;;;16.08;5.57;;;;;;;3.11;100.00;99568.94;8317559;28;20333;-56
2024/01/15 16:45:50;;;;;;;7.00;4.28;;;;;;;3.10;100.00;99568.06;8328782;28;20046;-56
2024/01/15 16:49:50;;;;;;;11.35;5.65;;;;;;;3.14;100.00;99558.84;8335400;28;20056;-56
2024/01/15 16:53:51;;;;;;;12.77;4.70;;;;;;;3.19;100.00;99562.03;8328324;28;20041;-60
2024/01/15 16:57:52;;;;;;;14.90;4.80;;;;;;;3.19;100.00;99564.69;8295612;28;20461;-57
2024/01/15 17:01:52;;;;;;;9.63;4.50;;;;;;;3.20;100.00;99574.38;8322819;28;21016;-55
2024/01/15 17:05:53;;;;;;;11.68;5.10;;;;;;;3.14;100.00;99574.03;8337470;28;20095;-57
2024/01/15 17:09:53;;;;;;;14.52;5.18;;;;;;;3.12;100.00;99582.16;8308886;28;20073;-56
2024/01/15 17:13:55;;;;;;;7.78;5.68;;;;;;;3.06;100.00;99587.09;8343190;28;20065;-57
2024/01/15 17:17:55;;;;;;;17.20;5.05;;;;;;;2.99;100.00;99586.69;8336396;28;20086;-55
2024/01/15 17:21:56;;;;;;;7.85;4.72;;;;;;;2.87;100.00;99589.47;8365428;28;20044;-58
2024/01/15 17:25:56;;;;;;;8.38;4.82;;;;;;;2.84;100.00;99603.88;8333686;28;20045;-57
2024/01/15 17:29:57;;;;;;;12.07;6.00;;;;;;;2.83;100.00;99607.50;8365280;28;20524;-58
2024/01/15 17:33:57;;;;;;;11.27;5.97;;;;;;;2.79;100.00;99615.84;8367061;28;20048;-56
2024/01/15 17:37:58;;;;;;;10.60;5.50;;;;;;;2.71;100.00;99626.28;8359986;28;20457;-57
2024/01/15 17:42:01;;;;;;;8.15;5.03;;;;;;;2.65;100.00;99619.53;8351332;28;20052;-57
2024/01/15 17:46:01;;;;;;;13.40;5.28;;;;;;;2.66;100.00;99610.59;8352782;28;20042;-56
2024/01/15 17:50:02;;;;;;;10.48;5.45;;;;;;;2.64;100.00;99627.66;8329812;28;20040;-56
2024/01/15 17:54:04;;;;;;;13.77;6.15;;;;;;;2.65;100.00;99632.88;8344539;28;20099;-55
2024/01/15 17:58:05;;;;;;;19.77;6.97;;;;;;;2.66;100.00;99642.63;8350218;28;20040;-55
2024/01/15 18:02:06;;;;;;;15.52;6.35;;;;;;;2.65;100.00;99646.22;8342185;28;20048;-56
2024/01/15 18:06:09;;;;;;;17.60;6.90;;;;;;;2.62;100.00;99651.78;8337787;28;20102;-57
2024/01/15 18:10:10;;;;;;;19.50;7.15;;;;;;;2.59;100.00;99646.66;8338729;28;20064;-55
2024/01/15 18:14:15;;;;;;;17.48;6.88;;;;;;;2.64;100.00;99665.88;8339973;28;20048;-57
2024/01/15 18:18:15;;;;;;;17.40;7.78;;;;;;;2.74;100.00;99679.41;8345082;28;20037;-56
2024/01/15 18:22:15;;;;;;;18.50;8.88;;;;;;;2.82;100.00;99685.00;8337921;28;20124;-57
2024/01/15 18:26:17;;;;;;;18.50;7.70;;;;;;;2.87;100.00;99688.22;8350058;28;20041;-54
2024/01/15 18:30:18;;;;;;;16.42;7.00;;;;;;;2.80;100.00;99693.13;8341526;28;20041;-57
2024/01/15 18:34:18;;;;;;;11.60;6.32;;;;;;;2.74;100.00;99704.25;8336030;28;20344;-56